sensor_id;sensor_type;location;lat;lon;timestamp;P1;durP1;ratioP1;P2;durP2;ratioP2
48185;SDS011;33978;47.432;18.916;2022-09-27T00:02:16;10.68;;;8.68;;
48185;SDS011;33978;47.432;18.916;2022-09-27T00:04:44;12.68;;;8.93;;
48185;SDS011;33978;47.432;18.916;2022-09-27T00:07:11;10.25;;;8.43;;
48185;SDS011;33978;47.432;18.916;2022-09-27T00:09:39;10.48;;;8.65;;
48185;SDS011;33978;47.432;18.916;2022-09-27T00:12:07;11.70;;;8.40;;
48185;SDS011;33978;47.432;18.916;2022-09-27T00:14:35;11.50;;;7.95;;
48185;SDS011;33978;47.432;18.916;2022-09-27T00:17:02;11.60;;;8.52;;
48185;SDS011;33978;47.432;18.916;2022-09-27T00:19:30;10.73;;;8.35;;
48185;SDS011;33978;47.432;18.916;2022-09-27T00:21:57;10.10;;;8.15;;
48185;SDS011;33978;47.432;18.916;2022-09-27T00:24:27;11.18;;;8.35;;
48185;SDS011;33978;47.432;18.916;2022-09-27T00:26:55;10.20;;;8.75;;
48185;SDS011;33978;47.432;18.916;2022-09-27T00:29:22;11.38;;;8.30;;
48185;SDS011;33978;47.432;18.916;2022-09-27T00:31:50;10.95;;;7.43;;
48185;SDS011;33978;47.432;18.916;2022-09-27T00:34:18;9.68;;;7.87;;
48185;SDS011;33978;47.432;18.916;2022-09-27T00:36:47;9.48;;;7.72;;
48185;SDS011;33978;47.432;18.916;2022-09-27T00:39:15;11.90;;;7.57;;
48185;SDS011;33978;47.432;18.916;2022-09-27T00:41:43;10.45;;;7.70;;
48185;SDS011;33978;47.432;18.916;2022-09-27T00:49:23;9.38;;;7.40;;
48185;SDS011;33978;47.432;18.916;2022-09-27T00:51:58;8.88;;;7.50;;
48185;SDS011;33978;47.432;18.916;2022-09-27T00:56:56;10.60;;;7.37;;
48185;SDS011;33978;47.432;18.916;2022-09-27T01:02:02;10.23;;;8.32;;
48185;SDS011;33978;47.432;18.916;2022-09-27T01:04:30;9.75;;;8.18;;
48185;SDS011;33978;47.432;18.916;2022-09-27T01:06:58;10.40;;;8.05;;
48185;SDS011;33978;47.432;18.916;2022-09-27T01:09:26;11.88;;;7.82;;
48185;SDS011;33978;47.432;18.916;2022-09-27T01:34:22;10.55;;;9.02;;
48185;SDS011;33978;47.432;18.916;2022-09-27T01:45:20;10.32;;;8.20;;
48185;SDS011;33978;47.432;18.916;2022-09-27T01:47:51;10.48;;;8.07;;
48185;SDS011;33978;47.432;18.916;2022-09-27T01:50:32;10.27;;;8.57;;
48185;SDS011;33978;47.432;18.916;2022-09-27T01:53:02;11.05;;;8.00;;
48185;SDS011;33978;47.432;18.916;2022-09-27T01:58:21;11.15;;;8.35;;
48185;SDS011;33978;47.432;18.916;2022-09-27T02:00:53;10.40;;;8.48;;
48185;SDS011;33978;47.432;18.916;2022-09-27T02:03:23;11.40;;;7.70;;
48185;SDS011;33978;47.432;18.916;2022-09-27T02:05:56;10.40;;;8.27;;
48185;SDS011;33978;47.432;18.916;2022-09-27T02:08:28;9.90;;;8.00;;
48185;SDS011;33978;47.432;18.916;2022-09-27T02:11:02;9.40;;;7.82;;
48185;SDS011;33978;47.432;18.916;2022-09-27T02:13:37;12.40;;;8.20;;
48185;SDS011;33978;47.432;18.916;2022-09-27T02:21:55;9.10;;;8.15;;
48185;SDS011;33978;47.432;18.916;2022-09-27T02:24:29;10.13;;;8.57;;
48185;SDS011;33978;47.432;18.916;2022-09-27T02:27:14;11.05;;;8.43;;
48185;SDS011;33978;47.432;18.916;2022-09-27T02:29:45;10.25;;;9.02;;
48185;SDS011;33978;47.432;18.916;2022-09-27T02:32:17;10.10;;;9.00;;
48185;SDS011;33978;47.432;18.916;2022-09-27T02:34:45;13.88;;;9.05;;
48185;SDS011;33978;47.432;18.916;2022-09-27T02:37:13;12.23;;;9.07;;
48185;SDS011;33978;47.432;18.916;2022-09-27T02:39:41;12.02;;;9.02;;
48185;SDS011;33978;47.432;18.916;2022-09-27T02:42:09;13.18;;;10.38;;
48185;SDS011;33978;47.432;18.916;2022-09-27T02:44:37;13.10;;;10.23;;
48185;SDS011;33978;47.432;18.916;2022-09-27T02:47:18;16.87;;;10.55;;
48185;SDS011;33978;47.432;18.916;2022-09-27T02:50:19;13.70;;;10.77;;
48185;SDS011;33978;47.432;18.916;2022-09-27T02:52:55;14.18;;;11.43;;
48185;SDS011;33978;47.432;18.916;2022-09-27T02:55:42;19.65;;;12.07;;
48185;SDS011;33978;47.432;18.916;2022-09-27T03:01:29;25.83;;;17.73;;
48185;SDS011;33978;47.432;18.916;2022-09-27T03:06:37;31.58;;;17.83;;
48185;SDS011;33978;47.432;18.916;2022-09-27T03:09:12;30.27;;;18.48;;
48185;SDS011;33978;47.432;18.916;2022-09-27T03:11:44;36.13;;;19.87;;
48185;SDS011;33978;47.432;18.916;2022-09-27T03:14:11;29.70;;;19.67;;
48185;SDS011;33978;47.432;18.916;2022-09-27T03:16:39;34.63;;;20.33;;
48185;SDS011;33978;47.432;18.916;2022-09-27T03:19:08;32.28;;;20.45;;
48185;SDS011;33978;47.432;18.916;2022-09-27T03:21:39;35.42;;;21.30;;
48185;SDS011;33978;47.432;18.916;2022-09-27T03:24:07;38.13;;;21.80;;
48185;SDS011;33978;47.432;18.916;2022-09-27T03:26:35;39.28;;;22.45;;
48185;SDS011;33978;47.432;18.916;2022-09-27T03:29:02;33.90;;;21.55;;
48185;SDS011;33978;47.432;18.916;2022-09-27T03:31:30;33.42;;;19.60;;
48185;SDS011;33978;47.432;18.916;2022-09-27T03:34:00;34.47;;;21.00;;
48185;SDS011;33978;47.432;18.916;2022-09-27T03:36:27;29.55;;;19.98;;
48185;SDS011;33978;47.432;18.916;2022-09-27T03:38:55;29.12;;;18.12;;
48185;SDS011;33978;47.432;18.916;2022-09-27T03:41:23;32.42;;;17.65;;
48185;SDS011;33978;47.432;18.916;2022-09-27T03:43:51;30.60;;;18.45;;
48185;SDS011;33978;47.432;18.916;2022-09-27T03:46:19;30.35;;;18.58;;
48185;SDS011;33978;47.432;18.916;2022-09-27T03:48:46;33.13;;;19.27;;
48185;SDS011;33978;47.432;18.916;2022-09-27T03:51:14;32.17;;;19.23;;
48185;SDS011;33978;47.432;18.916;2022-09-27T03:53:42;30.12;;;19.70;;
48185;SDS011;33978;47.432;18.916;2022-09-27T03:56:09;28.83;;;19.10;;
48185;SDS011;33978;47.432;18.916;2022-09-27T03:58:37;26.45;;;17.73;;
48185;SDS011;33978;47.432;18.916;2022-09-27T04:01:05;26.73;;;17.62;;
48185;SDS011;33978;47.432;18.916;2022-09-27T04:03:33;24.20;;;16.00;;
48185;SDS011;33978;47.432;18.916;2022-09-27T04:06:06;24.63;;;15.55;;
48185;SDS011;33978;47.432;18.916;2022-09-27T04:08:34;27.87;;;17.30;;
48185;SDS011;33978;47.432;18.916;2022-09-27T04:11:04;28.38;;;18.58;;
48185;SDS011;33978;47.432;18.916;2022-09-27T04:13:32;31.77;;;17.67;;
48185;SDS011;33978;47.432;18.916;2022-09-27T04:15:59;29.58;;;18.48;;
48185;SDS011;33978;47.432;18.916;2022-09-27T04:18:30;27.55;;;17.92;;
48185;SDS011;33978;47.432;18.916;2022-09-27T04:20:59;30.90;;;18.00;;
48185;SDS011;33978;47.432;18.916;2022-09-27T04:23:28;24.83;;;16.33;;
48185;SDS011;33978;47.432;18.916;2022-09-27T04:25:56;22.50;;;15.93;;
48185;SDS011;33978;47.432;18.916;2022-09-27T04:28:28;29.63;;;14.10;;
48185;SDS011;33978;47.432;18.916;2022-09-27T04:30:56;21.85;;;14.87;;
48185;SDS011;33978;47.432;18.916;2022-09-27T04:33:24;24.17;;;15.63;;
48185;SDS011;33978;47.432;18.916;2022-09-27T04:35:54;24.48;;;15.02;;
48185;SDS011;33978;47.432;18.916;2022-09-27T04:38:40;21.27;;;16.08;;
48185;SDS011;33978;47.432;18.916;2022-09-27T04:41:08;26.35;;;15.68;;
48185;SDS011;33978;47.432;18.916;2022-09-27T04:43:37;52.17;;;16.55;;
48185;SDS011;33978;47.432;18.916;2022-09-27T04:46:05;28.08;;;16.52;;
48185;SDS011;33978;47.432;18.916;2022-09-27T04:48:33;25.33;;;17.70;;
48185;SDS011;33978;47.432;18.916;2022-09-27T04:51:01;29.15;;;19.17;;
48185;SDS011;33978;47.432;18.916;2022-09-27T04:53:28;38.72;;;20.45;;
48185;SDS011;33978;47.432;18.916;2022-09-27T04:55:56;41.22;;;22.05;;
48185;SDS011;33978;47.432;18.916;2022-09-27T04:58:24;40.70;;;22.35;;
48185;SDS011;33978;47.432;18.916;2022-09-27T05:00:52;68.15;;;23.75;;
48185;SDS011;33978;47.432;18.916;2022-09-27T05:03:24;47.83;;;24.40;;
48185;SDS011;33978;47.432;18.916;2022-09-27T05:05:52;71.28;;;23.77;;
48185;SDS011;33978;47.432;18.916;2022-09-27T05:08:19;45.03;;;22.52;;
48185;SDS011;33978;47.432;18.916;2022-09-27T05:10:52;53.55;;;22.90;;
48185;SDS011;33978;47.432;18.916;2022-09-27T05:13:20;45.00;;;23.10;;
48185;SDS011;33978;47.432;18.916;2022-09-27T05:15:48;43.22;;;23.80;;
48185;SDS011;33978;47.432;18.916;2022-09-27T05:18:17;56.63;;;23.20;;
48185;SDS011;33978;47.432;18.916;2022-09-27T05:20:51;64.62;;;25.30;;
48185;SDS011;33978;47.432;18.916;2022-09-27T05:23:20;51.03;;;25.27;;
48185;SDS011;33978;47.432;18.916;2022-09-27T05:25:47;68.00;;;25.25;;
48185;SDS011;33978;47.432;18.916;2022-09-27T05:28:15;51.10;;;23.65;;
48185;SDS011;33978;47.432;18.916;2022-09-27T05:30:42;93.50;;;26.52;;
48185;SDS011;33978;47.432;18.916;2022-09-27T05:33:11;51.78;;;24.77;;
48185;SDS011;33978;47.432;18.916;2022-09-27T05:35:39;66.82;;;25.77;;
48185;SDS011;33978;47.432;18.916;2022-09-27T05:38:12;78.60;;;26.23;;
48185;SDS011;33978;47.432;18.916;2022-09-27T05:40:40;54.45;;;25.45;;
48185;SDS011;33978;47.432;18.916;2022-09-27T05:43:10;60.53;;;26.05;;
48185;SDS011;33978;47.432;18.916;2022-09-27T05:45:38;76.28;;;26.55;;
48185;SDS011;33978;47.432;18.916;2022-09-27T05:48:06;51.85;;;24.67;;
48185;SDS011;33978;47.432;18.916;2022-09-27T05:50:33;42.65;;;25.27;;
48185;SDS011;33978;47.432;18.916;2022-09-27T05:53:01;65.07;;;24.95;;
48185;SDS011;33978;47.432;18.916;2022-09-27T05:55:29;46.83;;;24.80;;
48185;SDS011;33978;47.432;18.916;2022-09-27T05:57:57;49.70;;;25.50;;
48185;SDS011;33978;47.432;18.916;2022-09-27T06:00:33;73.82;;;25.02;;
48185;SDS011;33978;47.432;18.916;2022-09-27T06:03:04;38.45;;;23.67;;
48185;SDS011;33978;47.432;18.916;2022-09-27T06:05:37;65.78;;;25.23;;
48185;SDS011;33978;47.432;18.916;2022-09-27T06:08:09;47.05;;;25.40;;
48185;SDS011;33978;47.432;18.916;2022-09-27T06:10:38;48.13;;;27.73;;
48185;SDS011;33978;47.432;18.916;2022-09-27T06:13:09;56.47;;;27.13;;
48185;SDS011;33978;47.432;18.916;2022-09-27T06:15:39;49.45;;;27.48;;
48185;SDS011;33978;47.432;18.916;2022-09-27T06:18:11;49.80;;;27.08;;
48185;SDS011;33978;47.432;18.916;2022-09-27T06:20:45;55.10;;;27.83;;
48185;SDS011;33978;47.432;18.916;2022-09-27T06:23:16;59.53;;;30.12;;
48185;SDS011;33978;47.432;18.916;2022-09-27T06:25:46;54.50;;;28.58;;
48185;SDS011;33978;47.432;18.916;2022-09-27T06:28:14;59.30;;;29.00;;
48185;SDS011;33978;47.432;18.916;2022-09-27T06:30:46;62.60;;;29.25;;
48185;SDS011;33978;47.432;18.916;2022-09-27T06:33:16;62.25;;;29.48;;
48185;SDS011;33978;47.432;18.916;2022-09-27T06:35:46;73.72;;;30.20;;
48185;SDS011;33978;47.432;18.916;2022-09-27T06:38:16;54.25;;;28.55;;
48185;SDS011;33978;47.432;18.916;2022-09-27T06:40:45;79.40;;;29.40;;
48185;SDS011;33978;47.432;18.916;2022-09-27T06:43:14;61.17;;;30.55;;
48185;SDS011;33978;47.432;18.916;2022-09-27T06:45:44;67.43;;;29.27;;
48185;SDS011;33978;47.432;18.916;2022-09-27T06:48:18;61.50;;;28.65;;
48185;SDS011;33978;47.432;18.916;2022-09-27T06:50:46;57.20;;;29.70;;
48185;SDS011;33978;47.432;18.916;2022-09-27T06:53:15;61.22;;;29.02;;
48185;SDS011;33978;47.432;18.916;2022-09-27T06:55:43;58.47;;;29.02;;
48185;SDS011;33978;47.432;18.916;2022-09-27T06:58:11;46.10;;;27.67;;
48185;SDS011;33978;47.432;18.916;2022-09-27T07:00:59;49.88;;;27.55;;
48185;SDS011;33978;47.432;18.916;2022-09-27T07:03:29;41.55;;;25.00;;
48185;SDS011;33978;47.432;18.916;2022-09-27T07:06:16;43.05;;;27.02;;
48185;SDS011;33978;47.432;18.916;2022-09-27T07:08:52;40.75;;;25.65;;
48185;SDS011;33978;47.432;18.916;2022-09-27T07:11:21;38.33;;;24.60;;
48185;SDS011;33978;47.432;18.916;2022-09-27T07:13:51;36.88;;;23.42;;
48185;SDS011;33978;47.432;18.916;2022-09-27T07:16:18;31.05;;;21.40;;
48185;SDS011;33978;47.432;18.916;2022-09-27T07:18:46;32.53;;;22.15;;
48185;SDS011;33978;47.432;18.916;2022-09-27T07:21:14;30.00;;;21.40;;
48185;SDS011;33978;47.432;18.916;2022-09-27T07:23:42;34.97;;;21.98;;
48185;SDS011;33978;47.432;18.916;2022-09-27T07:26:11;33.00;;;21.85;;
48185;SDS011;33978;47.432;18.916;2022-09-27T07:28:39;32.53;;;21.67;;
48185;SDS011;33978;47.432;18.916;2022-09-27T07:31:07;35.25;;;21.98;;
48185;SDS011;33978;47.432;18.916;2022-09-27T07:33:36;31.60;;;23.10;;
48185;SDS011;33978;47.432;18.916;2022-09-27T07:36:10;34.97;;;23.05;;
48185;SDS011;33978;47.432;18.916;2022-09-27T07:38:39;38.53;;;24.15;;
48185;SDS011;33978;47.432;18.916;2022-09-27T07:41:10;36.05;;;24.00;;
48185;SDS011;33978;47.432;18.916;2022-09-27T07:43:40;37.88;;;25.65;;
48185;SDS011;33978;47.432;18.916;2022-09-27T07:46:10;36.88;;;24.52;;
48185;SDS011;33978;47.432;18.916;2022-09-27T07:48:40;30.92;;;22.05;;
48185;SDS011;33978;47.432;18.916;2022-09-27T07:51:07;33.15;;;22.77;;
48185;SDS011;33978;47.432;18.916;2022-09-27T07:53:37;32.88;;;21.92;;
48185;SDS011;33978;47.432;18.916;2022-09-27T07:56:06;29.73;;;21.87;;
48185;SDS011;33978;47.432;18.916;2022-09-27T07:58:33;33.20;;;22.35;;
48185;SDS011;33978;47.432;18.916;2022-09-27T08:01:03;27.87;;;20.92;;
48185;SDS011;33978;47.432;18.916;2022-09-27T08:03:33;30.23;;;21.02;;
48185;SDS011;33978;47.432;18.916;2022-09-27T08:06:01;33.05;;;21.77;;
48185;SDS011;33978;47.432;18.916;2022-09-27T08:08:30;30.42;;;21.05;;
48185;SDS011;33978;47.432;18.916;2022-09-27T08:10:58;31.20;;;20.98;;
48185;SDS011;33978;47.432;18.916;2022-09-27T08:13:26;28.08;;;20.50;;
48185;SDS011;33978;47.432;18.916;2022-09-27T08:15:53;29.33;;;19.70;;
48185;SDS011;33978;47.432;18.916;2022-09-27T08:18:21;28.30;;;19.95;;
48185;SDS011;33978;47.432;18.916;2022-09-27T08:20:50;26.25;;;19.35;;
48185;SDS011;33978;47.432;18.916;2022-09-27T08:23:18;26.60;;;18.85;;
48185;SDS011;33978;47.432;18.916;2022-09-27T08:25:53;26.27;;;18.92;;
48185;SDS011;33978;47.432;18.916;2022-09-27T08:28:21;28.75;;;21.05;;
48185;SDS011;33978;47.432;18.916;2022-09-27T08:30:52;30.02;;;21.08;;
48185;SDS011;33978;47.432;18.916;2022-09-27T08:33:19;29.92;;;20.25;;
48185;SDS011;33978;47.432;18.916;2022-09-27T08:35:46;27.65;;;18.98;;
48185;SDS011;33978;47.432;18.916;2022-09-27T08:38:14;29.33;;;20.77;;
48185;SDS011;33978;47.432;18.916;2022-09-27T08:40:45;27.95;;;20.05;;
48185;SDS011;33978;47.432;18.916;2022-09-27T08:48:58;29.20;;;20.67;;
48185;SDS011;33978;47.432;18.916;2022-09-27T08:51:33;27.87;;;19.35;;
48185;SDS011;33978;47.432;18.916;2022-09-27T08:54:05;29.87;;;20.75;;
48185;SDS011;33978;47.432;18.916;2022-09-27T08:56:34;29.12;;;19.80;;
48185;SDS011;33978;47.432;18.916;2022-09-27T08:59:19;29.60;;;19.58;;
48185;SDS011;33978;47.432;18.916;2022-09-27T09:01:50;30.62;;;21.33;;
48185;SDS011;33978;47.432;18.916;2022-09-27T09:04:40;34.25;;;22.33;;
48185;SDS011;33978;47.432;18.916;2022-09-27T09:07:08;30.75;;;21.42;;
48185;SDS011;33978;47.432;18.916;2022-09-27T09:10:14;28.20;;;20.65;;
48185;SDS011;33978;47.432;18.916;2022-09-27T09:19:23;33.03;;;21.23;;
48185;SDS011;33978;47.432;18.916;2022-09-27T09:30:57;28.33;;;19.02;;
48185;SDS011;33978;47.432;18.916;2022-09-27T09:33:36;24.77;;;17.33;;
48185;SDS011;33978;47.432;18.916;2022-09-27T09:38:56;24.25;;;17.40;;
48185;SDS011;33978;47.432;18.916;2022-09-27T09:41:30;26.95;;;18.42;;
48185;SDS011;33978;47.432;18.916;2022-09-27T09:44:17;27.83;;;18.77;;
48185;SDS011;33978;47.432;18.916;2022-09-27T09:46:48;24.73;;;18.25;;
48185;SDS011;33978;47.432;18.916;2022-09-27T09:49:22;29.30;;;18.25;;
48185;SDS011;33978;47.432;18.916;2022-09-27T09:52:08;27.00;;;18.37;;
48185;SDS011;33978;47.432;18.916;2022-09-27T09:59:54;26.73;;;18.35;;
48185;SDS011;33978;47.432;18.916;2022-09-27T10:02:31;27.15;;;17.92;;
48185;SDS011;33978;47.432;18.916;2022-09-27T10:05:02;25.10;;;18.00;;
48185;SDS011;33978;47.432;18.916;2022-09-27T10:07:35;23.83;;;18.45;;
48185;SDS011;33978;47.432;18.916;2022-09-27T10:10:05;22.17;;;17.52;;
48185;SDS011;33978;47.432;18.916;2022-09-27T10:12:35;24.58;;;17.00;;
48185;SDS011;33978;47.432;18.916;2022-09-27T10:15:04;25.42;;;18.40;;
48185;SDS011;33978;47.432;18.916;2022-09-27T10:17:36;23.80;;;17.33;;
48185;SDS011;33978;47.432;18.916;2022-09-27T10:20:06;27.30;;;17.73;;
48185;SDS011;33978;47.432;18.916;2022-09-27T10:22:35;25.88;;;18.37;;
48185;SDS011;33978;47.432;18.916;2022-09-27T10:25:05;25.85;;;17.65;;
48185;SDS011;33978;47.432;18.916;2022-09-27T10:27:53;27.85;;;19.90;;
48185;SDS011;33978;47.432;18.916;2022-09-27T10:30:24;27.05;;;18.23;;
48185;SDS011;33978;47.432;18.916;2022-09-27T10:33:00;26.75;;;19.17;;
48185;SDS011;33978;47.432;18.916;2022-09-27T10:35:33;25.75;;;19.65;;
48185;SDS011;33978;47.432;18.916;2022-09-27T10:40:50;25.58;;;17.77;;
48185;SDS011;33978;47.432;18.916;2022-09-27T10:43:32;25.45;;;17.83;;
48185;SDS011;33978;47.432;18.916;2022-09-27T10:51:36;26.05;;;18.20;;
48185;SDS011;33978;47.432;18.916;2022-09-27T10:54:04;25.20;;;16.92;;
48185;SDS011;33978;47.432;18.916;2022-09-27T10:56:34;21.52;;;15.57;;
48185;SDS011;33978;47.432;18.916;2022-09-27T10:59:03;22.83;;;16.90;;
48185;SDS011;33978;47.432;18.916;2022-09-27T11:01:44;21.23;;;15.05;;
48185;SDS011;33978;47.432;18.916;2022-09-27T11:04:32;21.80;;;15.05;;
48185;SDS011;33978;47.432;18.916;2022-09-27T11:07:15;21.17;;;15.27;;
48185;SDS011;33978;47.432;18.916;2022-09-27T11:12:21;19.80;;;13.90;;
48185;SDS011;33978;47.432;18.916;2022-09-27T11:14:53;17.98;;;13.77;;
48185;SDS011;33978;47.432;18.916;2022-09-27T11:18:09;17.08;;;12.50;;
48185;SDS011;33978;47.432;18.916;2022-09-27T11:20:52;16.15;;;12.82;;
48185;SDS011;33978;47.432;18.916;2022-09-27T11:26:16;14.70;;;11.27;;
48185;SDS011;33978;47.432;18.916;2022-09-27T11:31:51;16.05;;;11.23;;
48185;SDS011;33978;47.432;18.916;2022-09-27T11:34:35;17.23;;;12.30;;
48185;SDS011;33978;47.432;18.916;2022-09-27T11:37:14;16.83;;;12.05;;
48185;SDS011;33978;47.432;18.916;2022-09-27T11:51:35;13.77;;;10.63;;
48185;SDS011;33978;47.432;18.916;2022-09-27T11:54:40;13.80;;;10.88;;
48185;SDS011;33978;47.432;18.916;2022-09-27T12:11:40;12.57;;;9.95;;
48185;SDS011;33978;47.432;18.916;2022-09-27T12:16:38;11.82;;;9.30;;
48185;SDS011;33978;47.432;18.916;2022-09-27T12:19:11;12.70;;;9.50;;
48185;SDS011;33978;47.432;18.916;2022-09-27T12:21:45;12.98;;;9.10;;
48185;SDS011;33978;47.432;18.916;2022-09-27T12:24:20;11.05;;;8.70;;
48185;SDS011;33978;47.432;18.916;2022-09-27T12:26:54;11.52;;;9.50;;
48185;SDS011;33978;47.432;18.916;2022-09-27T12:37:33;12.35;;;9.18;;
48185;SDS011;33978;47.432;18.916;2022-09-27T12:40:05;13.15;;;9.88;;
48185;SDS011;33978;47.432;18.916;2022-09-27T12:45:29;13.93;;;8.68;;
48185;SDS011;33978;47.432;18.916;2022-09-27T12:51:05;11.63;;;7.78;;
48185;SDS011;33978;47.432;18.916;2022-09-27T12:54:41;11.38;;;8.25;;
48185;SDS011;33978;47.432;18.916;2022-09-27T12:56:45;11.25;;;7.05;;
48185;SDS011;33978;47.432;18.916;2022-09-27T13:05:48;9.23;;;7.15;;
48185;SDS011;33978;47.432;18.916;2022-09-27T13:11:23;9.20;;;7.28;;
48185;SDS011;33978;47.432;18.916;2022-09-27T13:13:56;8.75;;;7.28;;
48185;SDS011;33978;47.432;18.916;2022-09-27T13:16:24;10.40;;;7.72;;
48185;SDS011;33978;47.432;18.916;2022-09-27T13:18:56;10.32;;;7.80;;
48185;SDS011;33978;47.432;18.916;2022-09-27T13:33:19;23.95;;;15.77;;
48185;SDS011;33978;47.432;18.916;2022-09-27T13:35:36;13.25;;;9.25;;
48185;SDS011;33978;47.432;18.916;2022-09-27T13:38:17;8.85;;;7.05;;
48185;SDS011;33978;47.432;18.916;2022-09-27T13:40:48;9.82;;;6.37;;
48185;SDS011;33978;47.432;18.916;2022-09-27T13:46:01;9.68;;;7.22;;
48185;SDS011;33978;47.432;18.916;2022-09-27T13:54:03;9.85;;;7.45;;
48185;SDS011;33978;47.432;18.916;2022-09-27T14:04:41;3.33;;;1.30;;
48185;SDS011;33978;47.432;18.916;2022-09-27T14:07:13;3.75;;;1.30;;
48185;SDS011;33978;47.432;18.916;2022-09-27T14:09:44;1.90;;;1.17;;
48185;SDS011;33978;47.432;18.916;2022-09-27T14:12:18;5.75;;;3.50;;
48185;SDS011;33978;47.432;18.916;2022-09-27T14:14:48;8.38;;;3.72;;
48185;SDS011;33978;47.432;18.916;2022-09-27T14:17:17;6.18;;;3.00;;
48185;SDS011;33978;47.432;18.916;2022-09-27T14:19:45;3.72;;;1.80;;
48185;SDS011;33978;47.432;18.916;2022-09-27T14:22:16;5.15;;;2.42;;
48185;SDS011;33978;47.432;18.916;2022-09-27T14:24:46;7.35;;;2.00;;
48185;SDS011;33978;47.432;18.916;2022-09-27T14:29:49;6.03;;;2.70;;
48185;SDS011;33978;47.432;18.916;2022-09-27T14:32:21;7.12;;;3.30;;
48185;SDS011;33978;47.432;18.916;2022-09-27T14:38:02;5.70;;;2.37;;
48185;SDS011;33978;47.432;18.916;2022-09-27T14:43:19;10.07;;;4.20;;
48185;SDS011;33978;47.432;18.916;2022-09-27T14:45:48;8.65;;;3.50;;
48185;SDS011;33978;47.432;18.916;2022-09-27T14:48:18;10.75;;;3.37;;
48185;SDS011;33978;47.432;18.916;2022-09-27T14:50:54;7.50;;;3.05;;
48185;SDS011;33978;47.432;18.916;2022-09-27T14:53:31;8.30;;;3.87;;
48185;SDS011;33978;47.432;18.916;2022-09-27T14:56:00;5.87;;;3.37;;
48185;SDS011;33978;47.432;18.916;2022-09-27T14:58:28;11.20;;;3.95;;
48185;SDS011;33978;47.432;18.916;2022-09-27T15:01:14;4.53;;;2.90;;
48185;SDS011;33978;47.432;18.916;2022-09-27T15:03:43;1.98;;;1.62;;
48185;SDS011;33978;47.432;18.916;2022-09-27T15:06:11;3.75;;;1.90;;
48185;SDS011;33978;47.432;18.916;2022-09-27T15:08:39;2.10;;;1.25;;
48185;SDS011;33978;47.432;18.916;2022-09-27T15:11:06;4.05;;;2.70;;
48185;SDS011;33978;47.432;18.916;2022-09-27T15:13:36;4.18;;;2.90;;
48185;SDS011;33978;47.432;18.916;2022-09-27T15:16:06;3.97;;;2.62;;
48185;SDS011;33978;47.432;18.916;2022-09-27T15:21:12;1.62;;;1.40;;
48185;SDS011;33978;47.432;18.916;2022-09-27T15:23:42;2.25;;;1.52;;
48185;SDS011;33978;47.432;18.916;2022-09-27T15:28:42;4.37;;;2.40;;
48185;SDS011;33978;47.432;18.916;2022-09-27T15:31:10;8.15;;;3.95;;
48185;SDS011;33978;47.432;18.916;2022-09-27T15:33:38;9.77;;;4.70;;
48185;SDS011;33978;47.432;18.916;2022-09-27T15:36:07;10.40;;;4.75;;
48185;SDS011;33978;47.432;18.916;2022-09-27T15:38:39;10.05;;;4.90;;
48185;SDS011;33978;47.432;18.916;2022-09-27T15:41:16;12.05;;;5.22;;
48185;SDS011;33978;47.432;18.916;2022-09-27T15:43:48;8.55;;;4.62;;
48185;SDS011;33978;47.432;18.916;2022-09-27T15:46:24;8.18;;;4.07;;
48185;SDS011;33978;47.432;18.916;2022-09-27T15:49:16;6.65;;;3.47;;
48185;SDS011;33978;47.432;18.916;2022-09-27T15:51:58;5.50;;;3.10;;
48185;SDS011;33978;47.432;18.916;2022-09-27T15:54:28;5.07;;;3.17;;
48185;SDS011;33978;47.432;18.916;2022-09-27T15:56:56;4.93;;;2.90;;
48185;SDS011;33978;47.432;18.916;2022-09-27T15:59:32;3.65;;;2.08;;
48185;SDS011;33978;47.432;18.916;2022-09-27T16:02:02;4.75;;;2.62;;
48185;SDS011;33978;47.432;18.916;2022-09-27T16:04:34;3.95;;;2.60;;
48185;SDS011;33978;47.432;18.916;2022-09-27T16:07:02;5.30;;;3.10;;
48185;SDS011;33978;47.432;18.916;2022-09-27T16:09:31;4.85;;;3.15;;
48185;SDS011;33978;47.432;18.916;2022-09-27T16:11:59;5.35;;;3.65;;
48185;SDS011;33978;47.432;18.916;2022-09-27T16:14:26;5.00;;;3.47;;
48185;SDS011;33978;47.432;18.916;2022-09-27T16:16:54;7.78;;;3.70;;
48185;SDS011;33978;47.432;18.916;2022-09-27T16:19:25;4.47;;;2.90;;
48185;SDS011;33978;47.432;18.916;2022-09-27T16:21:52;5.85;;;3.75;;
48185;SDS011;33978;47.432;18.916;2022-09-27T16:24:20;6.97;;;4.85;;
48185;SDS011;33978;47.432;18.916;2022-09-27T16:26:47;8.73;;;6.12;;
48185;SDS011;33978;47.432;18.916;2022-09-27T16:29:15;7.05;;;4.90;;
48185;SDS011;33978;47.432;18.916;2022-09-27T16:31:42;6.50;;;4.25;;
48185;SDS011;33978;47.432;18.916;2022-09-27T16:34:10;5.50;;;3.87;;
48185;SDS011;33978;47.432;18.916;2022-09-27T16:36:38;4.97;;;3.37;;
48185;SDS011;33978;47.432;18.916;2022-09-27T16:39:08;4.10;;;3.20;;
48185;SDS011;33978;47.432;18.916;2022-09-27T16:41:39;5.55;;;3.10;;
48185;SDS011;33978;47.432;18.916;2022-09-27T16:44:11;5.30;;;3.75;;
48185;SDS011;33978;47.432;18.916;2022-09-27T16:46:40;5.15;;;2.75;;
48185;SDS011;33978;47.432;18.916;2022-09-27T16:49:08;4.25;;;2.50;;
48185;SDS011;33978;47.432;18.916;2022-09-27T16:51:56;3.33;;;2.37;;
48185;SDS011;33978;47.432;18.916;2022-09-27T16:54:27;3.67;;;2.35;;
48185;SDS011;33978;47.432;18.916;2022-09-27T16:56:55;9.32;;;5.15;;
48185;SDS011;33978;47.432;18.916;2022-09-27T16:59:24;6.00;;;3.42;;
48185;SDS011;33978;47.432;18.916;2022-09-27T17:01:51;5.00;;;4.00;;
48185;SDS011;33978;47.432;18.916;2022-09-27T17:04:24;5.05;;;3.85;;
48185;SDS011;33978;47.432;18.916;2022-09-27T17:06:52;4.78;;;3.33;;
48185;SDS011;33978;47.432;18.916;2022-09-27T17:09:23;5.60;;;4.05;;
48185;SDS011;33978;47.432;18.916;2022-09-27T17:11:50;4.18;;;3.40;;
48185;SDS011;33978;47.432;18.916;2022-09-27T17:14:18;5.15;;;3.58;;
48185;SDS011;33978;47.432;18.916;2022-09-27T17:16:46;4.10;;;2.87;;
48185;SDS011;33978;47.432;18.916;2022-09-27T17:19:14;4.87;;;2.70;;
48185;SDS011;33978;47.432;18.916;2022-09-27T17:21:43;4.15;;;2.83;;
48185;SDS011;33978;47.432;18.916;2022-09-27T17:24:11;3.92;;;2.83;;
48185;SDS011;33978;47.432;18.916;2022-09-27T17:26:38;4.35;;;2.80;;
48185;SDS011;33978;47.432;18.916;2022-09-27T17:29:06;4.20;;;2.83;;
48185;SDS011;33978;47.432;18.916;2022-09-27T17:31:36;4.65;;;3.22;;
48185;SDS011;33978;47.432;18.916;2022-09-27T17:34:04;6.55;;;4.12;;
48185;SDS011;33978;47.432;18.916;2022-09-27T17:36:33;6.68;;;4.10;;
48185;SDS011;33978;47.432;18.916;2022-09-27T17:39:01;6.55;;;3.62;;
48185;SDS011;33978;47.432;18.916;2022-09-27T17:41:29;5.57;;;3.90;;
48185;SDS011;33978;47.432;18.916;2022-09-27T17:43:58;6.43;;;4.12;;
48185;SDS011;33978;47.432;18.916;2022-09-27T17:46:26;6.37;;;3.80;;
48185;SDS011;33978;47.432;18.916;2022-09-27T17:48:56;6.20;;;4.10;;
48185;SDS011;33978;47.432;18.916;2022-09-27T17:51:44;5.15;;;3.62;;
48185;SDS011;33978;47.432;18.916;2022-09-27T17:54:13;6.70;;;3.87;;
48185;SDS011;33978;47.432;18.916;2022-09-27T17:56:42;4.80;;;3.40;;
48185;SDS011;33978;47.432;18.916;2022-09-27T17:59:10;4.80;;;3.28;;